Siloam Springs, AR

13:56 CDT je la 30an de oktobro 2014 (GMT -0500)
Lake Forrest Heights | Change Station
CLOSE
Current Station
Personaj Veter-Stacioj
Location: Siloam Springs, AR
Alteco: 1148 ft
Najbaraj veter-stacioj
Aktiva averto: Freeze Warning

Elev 1148 ft 36.22 °N, 94.54 °W | Updated 10 minutes ago

Clear
Sennuba
69.3 °F
Sentas kiel 69.3 °F
N
7.6
Vento Varianta Vento from SOk
Gusts 9.8 mej/h

hodiaŭ
High -- | Low -- °F
--% Ebla precip.
hieraŭ
High -- | Low -- °F
Precip. -- co
7:39 AM 6:24 PM
Kreskanta Lunarko, 46% visible
Aerpremo 30.08 co
Vidodistanco 10.0 mejloj
Nuboj Sennuba
Rosopunkto 51 °F
Humido 53%
Pluvokvanto 0.00 co
Neĝprofundo Not available.
UV 5 out of 12
Pollen 4.10 out of 12
Aerkvalito Not available.
Flu Activity Not available.
METAR KSLG 301835Z AUTO 28015G21KT 10SM CLR 20/07 A3008 RMK AO1

More Conditions Fewer Conditions

Aerpremo 30.08 co
Vidodistanco 10.0 mejloj
Nuboj Sennuba
Rosopunkto 51 °F
Humido 53%
Pluvokvanto 0.00 co
Neĝprofundo Not available.
UV 5 out of 12
Pollen 4.10 out of 12
Aerkvalito Not available.
Flu Activity Not available.
METAR KSLG 301835Z AUTO 28015G21KT 10SM CLR 20/07 A3008 RMK AO1

More Conditions Fewer Conditions

10-Day Weather Forecast

Almanac

Astronomio

Oct. 30, 2014 Leviĝo Subiro
Aktuala tempo
Civila krepusko
Naŭtika krepusko
Astronomia krepusko
Luno
Daŭro de videbla lumo
Daŭro de tago
Tomorrow will be .
, % of the Moon is Illuminated

Hodiaŭaj ekstremaĵoj

State Highs State Lows

Community

WunderPhotos

Upload Photos

1,766,425 photos uploaded!

WunderBlogs® & News

Nearby

Aerkvalito

  Aerkvalito Aerkvalita indico Poluanto
Not available.

Neĝa profundeco

Station Depth Alteco

Earthquake Activity

Urbo Distance Mag. Time & Date
Minimum magnitude displayed is 2.5.

Coastal Water Temperatures

Loko Temperaturo

Najbaraj veter-stacioj